Amelia City, Florida
Current Conditions -  °F | °C
As of 5:15 PM on Tuesday 21 Oct 2014 (Local Time) from KFHB Reporting Station
Clear Clear  
Wind Chill: 82°   Ceiling: Unl
Heat Index: 84°   Visibility: 10mi
Dew Point: 64°   Wind: 3mph
Humidity: 54%   Direction: 130°SE
Pressure: 29.9"   Gusts: NA
Location:  30.6056°N, 81.5268°W
Report Text: KFHB 212115Z AUTO 13003KT 10SM CLR 28/18 A2990 RMK AO1
Loading
Personal Weather Stations






























Interactive Weather Map
Tropical Storm Tracking
New forecast layout! Learn more

10-Day Weather Forecast

Advertisements
Track Severe Weather on mobile